This is the latest recevied weather packets stored in our database for station/object HS6BUE-3. If no packets are shown the sender has not sent any weather packets the latest 1 day(s).
| Time | Temp. | Humidity | Pressure | Rain* | Wind** | Luminosity | Snow |
|---|---|---|---|---|---|---|---|
| 1836274852 | 31.11° C | 65% | 1003 hPa | - | 0 m/s | 0 W/m² | - |
| 1836274229 | 31.11° C | 66% | 1003 hPa | - | 0 m/s | 0 W/m² | - |
| 1778036414 | 28.89° C | 39% | 1005 hPa | - | 0 m/s | 0 W/m² | - |
| 1778035791 | 28.89° C | 41% | 1005 hPa | - | 0 m/s | 0 W/m² | - |
| 1778035169 | 28.33° C | 45% | 1005 hPa | - | 0 m/s | 0 W/m² | - |
| 1778034546 | 28.33° C | 37% | 1005 hPa | - | 0 m/s | 0 W/m² | - |
| 1778033923 | 28.33° C | 37% | 1005 hPa | - | 0 m/s | 0 W/m² | - |
| 1778033301 | 28.33° C | 38% | 1005 hPa | - | 0 m/s | 0 W/m² | - |
| 1778033239 | 28.33° C | 38% | 1005 hPa | - | 0 m/s | 0 W/m² | - |
| 1778032617 | 28.33° C | 39% | 1005 hPa | - | 0 m/s | 0 W/m² | - |
| 1778031994 | 28.33° C | 40% | 1005 hPa | - | 0 m/s | 0 W/m² | - |
| 1778031371 | 28.33° C | 42% | 1005 hPa | - | 0 m/s | 0 W/m² | - |
| 1778030749 | 27.78° C | 42% | 1005 hPa | - | 0 m/s | 0 W/m² | - |
| 1778030128 | 27.78° C | 38% | 1005 hPa | - | 0 m/s | 0 W/m² | - |
| 1778029503 | 28.89° C | 40% | 1005 hPa | - | 0 m/s | 0 W/m² | - |
| 1778028881 | 29.44° C | 40% | 1005 hPa | - | 0 m/s | 0 W/m² | - |
| 1778028258 | 31.11° C | 45% | 1005 hPa | - | 0 m/s | 0 W/m² | - |
| 1778027635 | 32.22° C | 50% | 1005 hPa | - | 0 m/s | 0 W/m² | - |
| 1778027013 | 32.22° C | 50% | 1005 hPa | - | 0 m/s | 0 W/m² | - |
| 1778026390 | 32.22° C | 50% | 1005 hPa | - | 0 m/s | 0 W/m² | - |
| 1778025767 | 32.22° C | 51% | 1005 hPa | - | 0 m/s | 0 W/m² | - |
| 1778025145 | 32.22° C | 51% | 1004 hPa | - | 0 m/s | 0 W/m² | - |
| 1778024522 | 31.67° C | 51% | 1004 hPa | - | 0 m/s | 0 W/m² | - |
| 1778023899 | 31.67° C | 51% | 1004 hPa | - | 0 m/s | 0 W/m² | - |
| 1778023276 | 32.22° C | 55% | 1004 hPa | - | 0 m/s | 0 W/m² | - |
* Rain since midnight (hover to see other rain measurements)
** Current wind speed in m/s (hover to see current wind gust speed)